sensor_id;sensor_type;location;lat;lon;timestamp;pressure;altitude;pressure_sealevel;temperature;humidity
20368;BME280;10343;52.402;9.796;2023-01-31T00:01:35;101301.69;;;8.26;78.90
20368;BME280;10343;52.402;9.796;2023-01-31T00:04:05;101315.69;;;8.62;76.65
20368;BME280;10343;52.402;9.796;2023-01-31T00:06:34;101309.78;;;7.57;82.26
20368;BME280;10343;52.402;9.796;2023-01-31T00:09:07;101302.75;;;7.40;82.90
20368;BME280;10343;52.402;9.796;2023-01-31T00:11:35;101309.78;;;7.78;81.99
20368;BME280;10343;52.402;9.796;2023-01-31T00:14:04;101306.28;;;7.07;84.71
20368;BME280;10343;52.402;9.796;2023-01-31T00:16:33;101317.66;;;7.86;81.64
20368;BME280;10343;52.402;9.796;2023-01-31T00:19:01;101320.25;;;8.19;81.48
20368;BME280;10343;52.402;9.796;2023-01-31T00:21:30;101322.72;;;8.62;77.70
20368;BME280;10343;52.402;9.796;2023-01-31T00:23:58;101326.34;;;8.34;77.82
20368;BME280;10343;52.402;9.796;2023-01-31T00:26:29;101329.97;;;8.09;80.85
20368;BME280;10343;52.402;9.796;2023-01-31T00:28:59;101335.13;;;8.49;77.50
20368;BME280;10343;52.402;9.796;2023-01-31T00:31:29;101331.50;;;8.70;73.55
20368;BME280;10343;52.402;9.796;2023-01-31T00:33:58;101318.53;;;8.01;77.25
20368;BME280;10343;52.402;9.796;2023-01-31T00:36:27;101323.75;;;8.18;75.70
20368;BME280;10343;52.402;9.796;2023-01-31T00:38:57;101332.47;;;8.41;73.74
20368;BME280;10343;52.402;9.796;2023-01-31T00:41:26;101336.78;;;8.72;73.75
20368;BME280;10343;52.402;9.796;2023-01-31T00:43:56;101333.00;;;9.16;69.76
20368;BME280;10343;52.402;9.796;2023-01-31T00:46:24;101342.47;;;9.48;69.74
20368;BME280;10343;52.402;9.796;2023-01-31T00:48:53;101351.66;;;8.90;71.91
20368;BME280;10343;52.402;9.796;2023-01-31T00:51:22;101345.56;;;8.80;73.09
20368;BME280;10343;52.402;9.796;2023-01-31T00:53:52;101356.28;;;8.49;73.95
20368;BME280;10343;52.402;9.796;2023-01-31T00:56:22;101347.41;;;8.62;77.57
20368;BME280;10343;52.402;9.796;2023-01-31T00:58:52;101351.06;;;8.15;79.71
20368;BME280;10343;52.402;9.796;2023-01-31T01:01:23;101343.97;;;8.25;79.89
20368;BME280;10343;52.402;9.796;2023-01-31T01:03:53;101332.47;;;8.41;82.51
20368;BME280;10343;52.402;9.796;2023-01-31T01:06:21;101334.22;;;8.62;80.96
20368;BME280;10343;52.402;9.796;2023-01-31T01:08:50;101341.34;;;8.29;81.93
20368;BME280;10343;52.402;9.796;2023-01-31T01:11:21;101351.75;;;8.79;79.60
20368;BME280;10343;52.402;9.796;2023-01-31T01:13:49;101344.88;;;8.18;83.28
20368;BME280;10343;52.402;9.796;2023-01-31T01:16:22;101353.72;;;8.20;81.17
20368;BME280;10343;52.402;9.796;2023-01-31T01:18:51;101358.03;;;8.50;84.07
20368;BME280;10343;52.402;9.796;2023-01-31T01:21:22;101351.00;;;8.30;85.53
20368;BME280;10343;52.402;9.796;2023-01-31T01:23:51;101359.00;;;7.99;85.77
20368;BME280;10343;52.402;9.796;2023-01-31T01:26:21;101368.56;;;8.62;82.34
20368;BME280;10343;52.402;9.796;2023-01-31T01:28:50;101377.50;;;7.96;82.72
20368;BME280;10343;52.402;9.796;2023-01-31T01:31:18;101380.91;;;8.60;83.20
20368;BME280;10343;52.402;9.796;2023-01-31T01:33:48;101386.28;;;8.11;79.68
20368;BME280;10343;52.402;9.796;2023-01-31T01:36:17;101380.03;;;8.54;81.17
20368;BME280;10343;52.402;9.796;2023-01-31T01:38:48;101390.59;;;8.58;80.72
20368;BME280;10343;52.402;9.796;2023-01-31T01:41:16;101387.16;;;8.19;82.81
20368;BME280;10343;52.402;9.796;2023-01-31T01:43:46;101384.38;;;8.72;81.57
20368;BME280;10343;52.402;9.796;2023-01-31T01:46:17;101398.47;;;8.74;78.14
20368;BME280;10343;52.402;9.796;2023-01-31T01:48:50;101394.22;;;8.09;80.45
20368;BME280;10343;52.402;9.796;2023-01-31T01:51:19;101398.53;;;8.43;78.79
20368;BME280;10343;52.402;9.796;2023-01-31T01:53:49;101409.94;;;8.65;78.08
20368;BME280;10343;52.402;9.796;2023-01-31T01:56:21;101409.13;;;8.44;80.30
20368;BME280;10343;52.402;9.796;2023-01-31T01:58:54;101409.16;;;8.46;80.56
20368;BME280;10343;52.402;9.796;2023-01-31T02:01:27;101423.03;;;9.04;76.97
20368;BME280;10343;52.402;9.796;2023-01-31T02:03:57;101428.47;;;8.66;77.99
20368;BME280;10343;52.402;9.796;2023-01-31T02:06:29;101419.56;;;8.89;78.53
20368;BME280;10343;52.402;9.796;2023-01-31T02:08:57;101424.84;;;8.95;76.88
20368;BME280;10343;52.402;9.796;2023-01-31T02:11:27;101423.06;;;8.93;78.38
20368;BME280;10343;52.402;9.796;2023-01-31T02:14:00;101421.38;;;8.78;77.58
20368;BME280;10343;52.402;9.796;2023-01-31T02:16:28;101430.81;;;9.27;75.99
20368;BME280;10343;52.402;9.796;2023-01-31T02:18:58;101423.78;;;9.24;75.04
20368;BME280;10343;52.402;9.796;2023-01-31T02:21:47;101407.84;;;9.33;77.29
20368;BME280;10343;52.402;9.796;2023-01-31T02:27:33;101389.84;;;7.51;88.58
20368;BME280;10343;52.402;9.796;2023-01-31T02:30:29;101405.56;;;8.62;85.39
20368;BME280;10343;52.402;9.796;2023-01-31T02:33:11;101402.88;;;8.76;85.08
20368;BME280;10343;52.402;9.796;2023-01-31T02:35:51;101413.50;;;8.64;83.47
20368;BME280;10343;52.402;9.796;2023-01-31T02:38:35;101416.19;;;8.21;85.13
20368;BME280;10343;52.402;9.796;2023-01-31T02:41:14;101407.34;;;8.39;87.06
20368;BME280;10343;52.402;9.796;2023-01-31T02:43:51;101428.50;;;8.51;85.63
20368;BME280;10343;52.402;9.796;2023-01-31T02:46:42;101424.00;;;8.87;81.78
20368;BME280;10343;52.402;9.796;2023-01-31T02:49:19;101417.97;;;8.20;87.15
20368;BME280;10343;52.402;9.796;2023-01-31T02:52:12;101423.09;;;8.91;81.22
20368;BME280;10343;52.402;9.796;2023-01-31T02:54:59;101412.69;;;8.17;86.39
20368;BME280;10343;52.402;9.796;2023-01-31T02:57:49;101430.16;;;8.81;83.09
20368;BME280;10343;52.402;9.796;2023-01-31T03:00:19;101432.03;;;8.47;83.03
20368;BME280;10343;52.402;9.796;2023-01-31T03:02:47;101430.78;;;9.34;79.23
20368;BME280;10343;52.402;9.796;2023-01-31T03:05:18;101432.81;;;8.84;82.41
20368;BME280;10343;52.402;9.796;2023-01-31T03:07:49;101421.31;;;8.93;80.34
20368;BME280;10343;52.402;9.796;2023-01-31T03:10:31;101424.72;;;9.14;79.84
20368;BME280;10343;52.402;9.796;2023-01-31T03:13:18;101425.78;;;8.80;81.94
20368;BME280;10343;52.402;9.796;2023-01-31T03:15:56;101419.72;;;8.27;82.91
20368;BME280;10343;52.402;9.796;2023-01-31T03:19:05;101421.47;;;8.28;84.55
20368;BME280;10343;52.402;9.796;2023-01-31T03:21:44;101420.56;;;8.59;82.63
20368;BME280;10343;52.402;9.796;2023-01-31T03:24:15;101417.13;;;7.99;83.29
20368;BME280;10343;52.402;9.796;2023-01-31T03:26:45;101416.13;;;8.61;80.86
20368;BME280;10343;52.402;9.796;2023-01-31T03:29:14;101405.59;;;8.34;81.58
20368;BME280;10343;52.402;9.796;2023-01-31T03:31:47;101410.88;;;8.41;82.13
20368;BME280;10343;52.402;9.796;2023-01-31T03:34:19;101403.88;;;8.06;81.21
20368;BME280;10343;52.402;9.796;2023-01-31T03:36:53;101405.56;;;8.56;81.51
20368;BME280;10343;52.402;9.796;2023-01-31T03:39:36;101395.03;;;8.53;80.50
20368;BME280;10343;52.402;9.796;2023-01-31T03:42:12;101395.97;;;8.15;81.06
20368;BME280;10343;52.402;9.796;2023-01-31T03:44:45;101391.50;;;8.48;79.87
20368;BME280;10343;52.402;9.796;2023-01-31T03:47:22;101388.03;;;8.18;79.61
20368;BME280;10343;52.402;9.796;2023-01-31T03:49:53;101401.19;;;8.37;78.95
20368;BME280;10343;52.402;9.796;2023-01-31T03:52:26;101395.03;;;8.38;79.86
20368;BME280;10343;52.402;9.796;2023-01-31T03:55:00;101398.41;;;8.86;76.19
20368;BME280;10343;52.402;9.796;2023-01-31T03:57:32;101409.09;;;8.55;75.46
20368;BME280;10343;52.402;9.796;2023-01-31T04:00:04;101391.59;;;7.86;80.66
20368;BME280;10343;52.402;9.796;2023-01-31T04:02:41;101395.13;;;7.85;81.96
20368;BME280;10343;52.402;9.796;2023-01-31T04:05:13;101389.81;;;7.97;81.75
20368;BME280;10343;52.402;9.796;2023-01-31T04:07:47;101396.81;;;8.23;77.84
20368;BME280;10343;52.402;9.796;2023-01-31T04:10:21;101379.28;;;7.54;82.45
20368;BME280;10343;52.402;9.796;2023-01-31T04:12:49;101382.75;;;8.06;79.40
20368;BME280;10343;52.402;9.796;2023-01-31T04:15:17;101395.06;;;8.22;79.19
20368;BME280;10343;52.402;9.796;2023-01-31T04:17:45;101396.81;;;8.32;78.58
20368;BME280;10343;52.402;9.796;2023-01-31T04:20:13;101391.59;;;7.95;79.75
20368;BME280;10343;52.402;9.796;2023-01-31T04:22:41;101387.19;;;7.68;80.48
20368;BME280;10343;52.402;9.796;2023-01-31T04:25:10;101400.38;;;7.82;80.07
20368;BME280;10343;52.402;9.796;2023-01-31T04:27:38;101393.31;;;7.22;82.26
20368;BME280;10343;52.402;9.796;2023-01-31T04:30:07;101408.25;;;8.39;77.93
20368;BME280;10343;52.402;9.796;2023-01-31T04:32:35;101400.41;;;7.74;80.87
20368;BME280;10343;52.402;9.796;2023-01-31T04:35:03;101405.66;;;7.57;82.25
20368;BME280;10343;52.402;9.796;2023-01-31T04:37:31;101410.00;;;8.51;76.82
20368;BME280;10343;52.402;9.796;2023-01-31T04:39:59;101410.88;;;8.44;76.66
20368;BME280;10343;52.402;9.796;2023-01-31T04:42:28;101401.16;;;8.61;75.61
20368;BME280;10343;52.402;9.796;2023-01-31T04:44:56;101402.16;;;8.05;76.12
20368;BME280;10343;52.402;9.796;2023-01-31T04:47:24;101403.03;;;7.94;78.86
20368;BME280;10343;52.402;9.796;2023-01-31T04:49:51;101403.91;;;7.50;77.00
20368;BME280;10343;52.402;9.796;2023-01-31T04:52:19;101409.16;;;8.23;77.05
20368;BME280;10343;52.402;9.796;2023-01-31T04:54:49;101410.88;;;8.53;74.27
20368;BME280;10343;52.402;9.796;2023-01-31T04:57:17;101417.94;;;8.48;74.81
20368;BME280;10343;52.402;9.796;2023-01-31T04:59:46;101419.69;;;8.49;75.56
20368;BME280;10343;52.402;9.796;2023-01-31T05:02:15;101421.47;;;8.31;73.26
20368;BME280;10343;52.402;9.796;2023-01-31T05:04:43;101417.00;;;8.71;72.20
20368;BME280;10343;52.402;9.796;2023-01-31T05:07:11;101417.72;;;9.05;71.02
20368;BME280;10343;52.402;9.796;2023-01-31T05:09:39;101420.63;;;7.88;75.82
20368;BME280;10343;52.402;9.796;2023-01-31T05:12:08;101417.00;;;8.64;73.17
20368;BME280;10343;52.402;9.796;2023-01-31T05:14:35;101424.78;;;9.01;71.44
20368;BME280;10343;52.402;9.796;2023-01-31T05:17:05;101417.97;;;8.29;72.54
20368;BME280;10343;52.402;9.796;2023-01-31T05:19:32;101413.38;;;8.86;70.50
20368;BME280;10343;52.402;9.796;2023-01-31T05:22:00;101409.06;;;8.71;70.63
20368;BME280;10343;52.402;9.796;2023-01-31T05:24:30;101414.31;;;8.77;70.41
20368;BME280;10343;52.402;9.796;2023-01-31T05:27:00;101404.59;;;8.77;70.62
20368;BME280;10343;52.402;9.796;2023-01-31T05:29:30;101407.25;;;8.82;70.05
20368;BME280;10343;52.402;9.796;2023-01-31T05:32:00;101395.78;;;8.81;70.42
20368;BME280;10343;52.402;9.796;2023-01-31T05:34:30;101389.72;;;8.42;70.03
20368;BME280;10343;52.402;9.796;2023-01-31T05:36:59;101400.38;;;8.04;72.72
20368;BME280;10343;52.402;9.796;2023-01-31T05:39:28;101394.13;;;8.57;70.98
20368;BME280;10343;52.402;9.796;2023-01-31T05:41:56;101400.28;;;8.56;71.29
20368;BME280;10343;52.402;9.796;2023-01-31T05:44:24;101400.09;;;9.03;70.08
20368;BME280;10343;52.402;9.796;2023-01-31T05:46:52;101396.53;;;9.10;68.83
20368;BME280;10343;52.402;9.796;2023-01-31T05:49:20;101403.56;;;9.14;69.16
20368;BME280;10343;52.402;9.796;2023-01-31T05:51:49;101401.91;;;8.94;69.19
20368;BME280;10343;52.402;9.796;2023-01-31T05:54:16;101399.34;;;8.79;70.69
20368;BME280;10343;52.402;9.796;2023-01-31T05:56:44;101400.81;;;9.31;68.94
20368;BME280;10343;52.402;9.796;2023-01-31T05:59:12;101393.72;;;9.34;67.50
20368;BME280;10343;52.402;9.796;2023-01-31T06:01:39;101384.19;;;9.12;68.92
20368;BME280;10343;52.402;9.796;2023-01-31T06:04:08;101380.50;;;9.34;67.86
20368;BME280;10343;52.402;9.796;2023-01-31T06:06:36;101388.53;;;9.21;68.07
20368;BME280;10343;52.402;9.796;2023-01-31T06:09:05;101386.09;;;8.80;69.61
20368;BME280;10343;52.402;9.796;2023-01-31T06:11:33;101386.81;;;9.10;70.08
20368;BME280;10343;52.402;9.796;2023-01-31T06:14:01;101389.38;;;9.24;68.62
20368;BME280;10343;52.402;9.796;2023-01-31T06:16:29;101381.53;;;9.10;70.03
20368;BME280;10343;52.402;9.796;2023-01-31T06:18:57;101382.25;;;9.39;69.16
20368;BME280;10343;52.402;9.796;2023-01-31T06:21:25;101385.72;;;9.45;67.71
20368;BME280;10343;52.402;9.796;2023-01-31T06:23:53;101378.69;;;9.43;67.90
20368;BME280;10343;52.402;9.796;2023-01-31T06:26:22;101372.63;;;9.24;67.98
20368;BME280;10343;52.402;9.796;2023-01-31T06:28:50;101369.22;;;9.03;69.53
20368;BME280;10343;52.402;9.796;2023-01-31T06:31:18;101370.78;;;9.40;68.04
20368;BME280;10343;52.402;9.796;2023-01-31T06:33:46;101372.69;;;9.17;68.54
20368;BME280;10343;52.402;9.796;2023-01-31T06:36:14;101362.03;;;9.25;68.47
20368;BME280;10343;52.402;9.796;2023-01-31T06:38:48;101370.94;;;9.10;69.40
20368;BME280;10343;52.402;9.796;2023-01-31T06:41:16;101366.66;;;8.92;69.88
20368;BME280;10343;52.402;9.796;2023-01-31T06:43:45;101364.75;;;9.13;69.72
20368;BME280;10343;52.402;9.796;2023-01-31T06:46:13;101363.03;;;9.12;68.81
20368;BME280;10343;52.402;9.796;2023-01-31T06:48:41;101354.09;;;9.27;68.58
20368;BME280;10343;52.402;9.796;2023-01-31T06:51:09;101347.41;;;8.65;69.59
20368;BME280;10343;52.402;9.796;2023-01-31T06:53:37;101341.16;;;8.82;70.99
20368;BME280;10343;52.402;9.796;2023-01-31T06:56:05;101346.53;;;8.59;71.76
20368;BME280;10343;52.402;9.796;2023-01-31T06:58:33;101347.22;;;8.99;70.14
20368;BME280;10343;52.402;9.796;2023-01-31T07:01:06;101346.28;;;9.10;69.66
20368;BME280;10343;52.402;9.796;2023-01-31T07:03:35;101342.88;;;8.89;70.94
20368;BME280;10343;52.402;9.796;2023-01-31T07:06:03;101329.81;;;8.58;72.77
20368;BME280;10343;52.402;9.796;2023-01-31T07:08:31;101327.94;;;8.82;72.74
20368;BME280;10343;52.402;9.796;2023-01-31T07:11:01;101332.13;;;9.14;71.16
20368;BME280;10343;52.402;9.796;2023-01-31T07:13:29;101333.16;;;8.94;70.77
20368;BME280;10343;52.402;9.796;2023-01-31T07:15:58;101321.66;;;8.98;71.42
20368;BME280;10343;52.402;9.796;2023-01-31T07:18:27;101314.44;;;9.22;71.41
20368;BME280;10343;52.402;9.796;2023-01-31T07:20:55;101298.50;;;9.31;71.45
20368;BME280;10343;52.402;9.796;2023-01-31T07:23:23;101290.72;;;9.10;71.97
20368;BME280;10343;52.402;9.796;2023-01-31T07:25:51;101285.53;;;8.94;73.43
20368;BME280;10343;52.402;9.796;2023-01-31T07:28:19;101282.81;;;9.02;72.99
20368;BME280;10343;52.402;9.796;2023-01-31T07:30:47;101274.84;;;9.10;74.16
20368;BME280;10343;52.402;9.796;2023-01-31T07:33:17;101273.66;;;9.48;72.16
20368;BME280;10343;52.402;9.796;2023-01-31T07:35:47;101269.44;;;9.25;72.99
20368;BME280;10343;52.402;9.796;2023-01-31T07:38:15;101275.47;;;9.43;71.75
20368;BME280;10343;52.402;9.796;2023-01-31T07:40:43;101264.69;;;9.63;72.46
20368;BME280;10343;52.402;9.796;2023-01-31T07:43:11;101270.81;;;9.66;71.31
20368;BME280;10343;52.402;9.796;2023-01-31T07:45:39;101254.44;;;9.27;72.11
20368;BME280;10343;52.402;9.796;2023-01-31T07:48:09;101265.00;;;9.27;72.86
20368;BME280;10343;52.402;9.796;2023-01-31T07:50:36;101250.19;;;9.05;74.82
20368;BME280;10343;52.402;9.796;2023-01-31T07:53:06;101254.53;;;9.15;74.47
20368;BME280;10343;52.402;9.796;2023-01-31T07:55:34;101243.91;;;9.20;74.33
20368;BME280;10343;52.402;9.796;2023-01-31T07:58:02;101252.81;;;9.06;72.96
20368;BME280;10343;52.402;9.796;2023-01-31T08:00:30;101252.53;;;9.42;72.00
20368;BME280;10343;52.402;9.796;2023-01-31T08:03:23;101241.09;;;9.37;72.83
20368;BME280;10343;52.402;9.796;2023-01-31T08:06:02;101239.50;;;9.20;72.85
20368;BME280;10343;52.402;9.796;2023-01-31T08:08:32;101241.09;;;9.40;72.57
20368;BME280;10343;52.402;9.796;2023-01-31T08:10:59;101232.13;;;9.51;71.53
20368;BME280;10343;52.402;9.796;2023-01-31T08:13:27;101229.53;;;9.48;70.65
20368;BME280;10343;52.402;9.796;2023-01-31T08:15:56;101222.75;;;9.20;72.17
20368;BME280;10343;52.402;9.796;2023-01-31T08:18:24;101219.50;;;9.80;70.49
20368;BME280;10343;52.402;9.796;2023-01-31T08:20:52;101217.03;;;9.61;69.40
20368;BME280;10343;52.402;9.796;2023-01-31T08:23:19;101209.66;;;9.90;68.00
20368;BME280;10343;52.402;9.796;2023-01-31T08:25:49;101209.81;;;9.76;69.35
20368;BME280;10343;52.402;9.796;2023-01-31T08:28:16;101209.72;;;9.86;68.54
20368;BME280;10343;52.402;9.796;2023-01-31T08:30:44;101207.53;;;9.42;69.66
20368;BME280;10343;52.402;9.796;2023-01-31T08:33:28;101198.75;;;9.37;71.69
20368;BME280;10343;52.402;9.796;2023-01-31T08:35:56;101206.13;;;9.91;69.04
20368;BME280;10343;52.402;9.796;2023-01-31T08:38:24;101205.41;;;9.76;68.12
20368;BME280;10343;52.402;9.796;2023-01-31T08:40:57;101193.63;;;10.02;68.43
20368;BME280;10343;52.402;9.796;2023-01-31T08:43:25;101191.50;;;10.29;68.08
20368;BME280;10343;52.402;9.796;2023-01-31T08:45:52;101185.53;;;10.13;67.41
20368;BME280;10343;52.402;9.796;2023-01-31T08:48:20;101181.72;;;10.32;66.19
20368;BME280;10343;52.402;9.796;2023-01-31T08:50:48;101172.41;;;10.69;65.47
20368;BME280;10343;52.402;9.796;2023-01-31T08:53:16;101176.56;;;10.22;65.97
20368;BME280;10343;52.402;9.796;2023-01-31T08:55:44;101170.88;;;9.85;66.66
20368;BME280;10343;52.402;9.796;2023-01-31T08:58:13;101171.81;;;9.80;67.43
20368;BME280;10343;52.402;9.796;2023-01-31T09:00:40;101161.03;;;9.95;67.61
20368;BME280;10343;52.402;9.796;2023-01-31T09:03:13;101154.28;;;10.38;66.06
20368;BME280;10343;52.402;9.796;2023-01-31T09:05:42;101160.84;;;10.09;65.65
20368;BME280;10343;52.402;9.796;2023-01-31T09:08:10;101144.50;;;9.76;66.93
20368;BME280;10343;52.402;9.796;2023-01-31T09:10:38;101140.91;;;11.00;64.54
20368;BME280;10343;52.402;9.796;2023-01-31T09:13:05;101153.56;;;11.34;61.49
20368;BME280;10343;52.402;9.796;2023-01-31T09:15:35;101160.50;;;10.39;63.03
20368;BME280;10343;52.402;9.796;2023-01-31T09:18:03;101144.41;;;10.48;64.95
20368;BME280;10343;52.402;9.796;2023-01-31T09:20:31;101151.31;;;9.96;65.60
20368;BME280;10343;52.402;9.796;2023-01-31T09:22:59;101153.31;;;10.44;64.26
20368;BME280;10343;52.402;9.796;2023-01-31T09:25:27;101157.78;;;10.42;63.24
20368;BME280;10343;52.402;9.796;2023-01-31T09:28:12;101151.97;;;10.12;65.14
20368;BME280;10343;52.402;9.796;2023-01-31T09:30:41;101157.94;;;9.59;68.48
20368;BME280;10343;52.402;9.796;2023-01-31T09:33:09;101156.53;;;11.17;62.45
20368;BME280;10343;52.402;9.796;2023-01-31T09:35:37;101152.66;;;9.59;66.78
20368;BME280;10343;52.402;9.796;2023-01-31T09:38:04;101143.25;;;10.03;71.42
20368;BME280;10343;52.402;9.796;2023-01-31T09:40:34;101124.13;;;9.02;75.10
20368;BME280;10343;52.402;9.796;2023-01-31T09:43:05;101123.38;;;8.89;79.51
20368;BME280;10343;52.402;9.796;2023-01-31T09:45:40;101118.47;;;9.38;80.39
20368;BME280;10343;52.402;9.796;2023-01-31T09:48:14;101114.41;;;9.82;79.35
20368;BME280;10343;52.402;9.796;2023-01-31T09:50:46;101106.28;;;9.26;84.35
20368;BME280;10343;52.402;9.796;2023-01-31T09:53:18;101085.06;;;9.29;83.86
20368;BME280;10343;52.402;9.796;2023-01-31T09:55:52;101080.91;;;9.05;85.70
20368;BME280;10343;52.402;9.796;2023-01-31T09:58:28;101082.88;;;8.84;84.65
20368;BME280;10343;52.402;9.796;2023-01-31T10:01:08;101090.84;;;8.82;85.04
20368;BME280;10343;52.402;9.796;2023-01-31T10:03:45;101087.94;;;9.09;83.78
20368;BME280;10343;52.402;9.796;2023-01-31T10:06:20;101086.22;;;9.78;79.58
20368;BME280;10343;52.402;9.796;2023-01-31T10:08:54;101083.88;;;9.53;80.29
20368;BME280;10343;52.402;9.796;2023-01-31T10:11:29;101082.59;;;9.13;79.29
20368;BME280;10343;52.402;9.796;2023-01-31T10:14:00;101076.50;;;9.07;81.43
20368;BME280;10343;52.402;9.796;2023-01-31T10:16:37;101086.03;;;9.23;80.41
20368;BME280;10343;52.402;9.796;2023-01-31T10:19:13;101075.53;;;9.14;80.08
20368;BME280;10343;52.402;9.796;2023-01-31T10:21:46;101074.63;;;9.16;80.09
20368;BME280;10343;52.402;9.796;2023-01-31T10:24:23;101058.88;;;9.04;80.84
20368;BME280;10343;52.402;9.796;2023-01-31T10:26:59;101060.78;;;9.67;77.62
20368;BME280;10343;52.402;9.796;2023-01-31T10:29:33;101057.91;;;9.13;79.05
20368;BME280;10343;52.402;9.796;2023-01-31T10:32:04;101051.47;;;9.37;78.63
20368;BME280;10343;52.402;9.796;2023-01-31T10:34:37;101054.84;;;9.48;79.70
20368;BME280;10343;52.402;9.796;2023-01-31T10:37:11;101051.47;;;8.53;82.54
20368;BME280;10343;52.402;9.796;2023-01-31T10:39:42;101045.09;;;8.74;82.54
20368;BME280;10343;52.402;9.796;2023-01-31T10:42:17;101022.16;;;9.51;80.54
20368;BME280;10343;52.402;9.796;2023-01-31T10:44:51;101020.28;;;8.86;82.35
20368;BME280;10343;52.402;9.796;2023-01-31T10:47:31;101024.44;;;9.12;79.13
20368;BME280;10343;52.402;9.796;2023-01-31T10:50:00;101006.75;;;9.14;81.72
20368;BME280;10343;52.402;9.796;2023-01-31T10:52:44;100996.91;;;9.25;81.04
20368;BME280;10343;52.402;9.796;2023-01-31T10:58:13;100984.25;;;9.50;79.37
20368;BME280;10343;52.402;9.796;2023-01-31T11:00:42;100976.34;;;8.74;82.05
20368;BME280;10343;52.402;9.796;2023-01-31T11:03:14;100972.53;;;9.65;79.99
20368;BME280;10343;52.402;9.796;2023-01-31T11:05:46;100987.31;;;9.16;78.40
20368;BME280;10343;52.402;9.796;2023-01-31T11:08:30;100969.56;;;9.26;80.20
20368;BME280;10343;52.402;9.796;2023-01-31T11:11:05;100976.34;;;9.46;79.89
20368;BME280;10343;52.402;9.796;2023-01-31T11:13:33;100968.53;;;9.38;80.36
20368;BME280;10343;52.402;9.796;2023-01-31T11:16:02;100957.09;;;9.34;80.45
20368;BME280;10343;52.402;9.796;2023-01-31T11:18:35;100946.78;;;9.78;78.61
20368;BME280;10343;52.402;9.796;2023-01-31T11:21:04;100953.56;;;9.35;79.79
20368;BME280;10343;52.402;9.796;2023-01-31T11:23:33;100942.34;;;10.32;75.47
20368;BME280;10343;52.402;9.796;2023-01-31T11:26:02;100968.00;;;10.28;75.46
20368;BME280;10343;52.402;9.796;2023-01-31T11:28:34;100947.63;;;9.79;77.28
20368;BME280;10343;52.402;9.796;2023-01-31T11:31:05;100952.97;;;9.76;77.20
20368;BME280;10343;52.402;9.796;2023-01-31T11:33:40;100955.28;;;9.37;76.77
20368;BME280;10343;52.402;9.796;2023-01-31T11:36:11;100941.00;;;9.50;80.66
20368;BME280;10343;52.402;9.796;2023-01-31T11:38:40;100941.06;;;9.47;81.21
20368;BME280;10343;52.402;9.796;2023-01-31T11:41:26;100938.31;;;9.53;80.46
20368;BME280;10343;52.402;9.796;2023-01-31T11:44:11;100935.09;;;9.31;80.11
20368;BME280;10343;52.402;9.796;2023-01-31T11:46:46;100927.13;;;9.93;78.17
20368;BME280;10343;52.402;9.796;2023-01-31T11:49:25;100924.22;;;8.87;82.63
20368;BME280;10343;52.402;9.796;2023-01-31T11:51:54;100912.03;;;9.39;81.01
20368;BME280;10343;52.402;9.796;2023-01-31T11:54:24;100914.66;;;9.44;81.98
20368;BME280;10343;52.402;9.796;2023-01-31T11:56:53;100910.47;;;9.85;79.03
20368;BME280;10343;52.402;9.796;2023-01-31T11:59:24;100897.81;;;8.84;83.24
20368;BME280;10343;52.402;9.796;2023-01-31T12:02:24;100901.31;;;10.05;78.90
20368;BME280;10343;52.402;9.796;2023-01-31T12:04:54;100896.28;;;9.89;79.66
20368;BME280;10343;52.402;9.796;2023-01-31T12:07:24;100890.47;;;9.67;81.97
20368;BME280;10343;52.402;9.796;2023-01-31T12:09:52;100880.28;;;9.42;83.61
20368;BME280;10343;52.402;9.796;2023-01-31T12:12:27;100881.66;;;10.18;78.59
20368;BME280;10343;52.402;9.796;2023-01-31T12:15:00;100878.00;;;9.72;79.24
20368;BME280;10343;52.402;9.796;2023-01-31T12:17:31;100868.34;;;9.69;81.12
20368;BME280;10343;52.402;9.796;2023-01-31T12:20:15;100865.94;;;9.54;81.26
20368;BME280;10343;52.402;9.796;2023-01-31T12:23:01;100869.59;;;10.00;79.10
20368;BME280;10343;52.402;9.796;2023-01-31T12:25:45;100861.94;;;9.30;83.23
20368;BME280;10343;52.402;9.796;2023-01-31T12:28:27;100873.13;;;9.46;81.53
20368;BME280;10343;52.402;9.796;2023-01-31T12:31:22;100858.63;;;9.14;83.60
20368;BME280;10343;52.402;9.796;2023-01-31T12:34:07;100867.97;;;9.91;81.70
20368;BME280;10343;52.402;9.796;2023-01-31T12:36:55;100858.50;;;9.23;82.15
20368;BME280;10343;52.402;9.796;2023-01-31T12:39:45;100859.81;;;10.03;81.76
20368;BME280;10343;52.402;9.796;2023-01-31T12:42:31;100878.44;;;10.00;79.10
20368;BME280;10343;52.402;9.796;2023-01-31T12:45:14;100871.38;;;9.46;82.59
20368;BME280;10343;52.402;9.796;2023-01-31T12:48:08;100867.09;;;9.38;83.24
20368;BME280;10343;52.402;9.796;2023-01-31T12:50:43;100858.16;;;9.45;84.96
20368;BME280;10343;52.402;9.796;2023-01-31T12:53:37;100872.75;;;9.71;84.73
20368;BME280;10343;52.402;9.796;2023-01-31T12:56:18;100861.00;;;9.34;87.91
20368;BME280;10343;52.402;9.796;2023-01-31T12:58:57;100875.59;;;10.11;83.51
20368;BME280;10343;52.402;9.796;2023-01-31T13:02:08;100863.69;;;9.29;89.97
20368;BME280;10343;52.402;9.796;2023-01-31T13:04:41;100855.75;;;9.84;90.17
20368;BME280;10343;52.402;9.796;2023-01-31T13:07:16;100870.53;;;9.43;90.55
20368;BME280;10343;52.402;9.796;2023-01-31T13:09:50;100867.00;;;9.44;93.00
20368;BME280;10343;52.402;9.796;2023-01-31T13:12:21;100851.56;;;9.16;98.81
20368;BME280;10343;52.402;9.796;2023-01-31T13:14:57;100852.06;;;9.41;96.80
20368;BME280;10343;52.402;9.796;2023-01-31T13:17:31;100854.47;;;10.07;92.84
20368;BME280;10343;52.402;9.796;2023-01-31T13:20:02;100851.72;;;10.13;93.05
20368;BME280;10343;52.402;9.796;2023-01-31T13:22:40;100839.84;;;9.31;100.00
20368;BME280;10343;52.402;9.796;2023-01-31T13:25:15;100855.91;;;9.75;95.70
20368;BME280;10343;52.402;9.796;2023-01-31T13:27:52;100831.47;;;9.57;100.00
20368;BME280;10343;52.402;9.796;2023-01-31T13:30:30;100826.75;;;9.76;100.00
20368;BME280;10343;52.402;9.796;2023-01-31T13:33:03;100819.06;;;9.05;100.00